sensor_id;sensor_type;location;lat;lon;timestamp;temperature;humidity
16823;DHT22;8528;49.976;11.858;2024-03-23T00:55:51;5.40;99.90
16823;DHT22;8528;49.976;11.858;2024-03-23T00:58:17;5.40;99.90
16823;DHT22;8528;49.976;11.858;2024-03-23T01:00:43;5.30;99.90
16823;DHT22;8528;49.976;11.858;2024-03-23T01:03:09;5.30;99.90
16823;DHT22;8528;49.976;11.858;2024-03-23T01:05:35;5.30;99.90
16823;DHT22;8528;49.976;11.858;2024-03-23T01:08:01;5.30;99.90
16823;DHT22;8528;49.976;11.858;2024-03-23T01:10:27;5.30;99.90
16823;DHT22;8528;49.976;11.858;2024-03-23T01:12:53;5.30;99.90
16823;DHT22;8528;49.976;11.858;2024-03-23T01:15:19;5.30;99.90
16823;DHT22;8528;49.976;11.858;2024-03-23T01:17:45;5.20;99.90
16823;DHT22;8528;49.976;11.858;2024-03-23T01:20:11;5.20;99.90
16823;DHT22;8528;49.976;11.858;2024-03-23T01:22:37;5.10;99.90
16823;DHT22;8528;49.976;11.858;2024-03-23T01:25:03;5.10;99.90
16823;DHT22;8528;49.976;11.858;2024-03-23T01:27:29;5.10;99.90
16823;DHT22;8528;49.976;11.858;2024-03-23T01:29:55;5.10;99.90
16823;DHT22;8528;49.976;11.858;2024-03-23T01:32:20;5.00;99.90
16823;DHT22;8528;49.976;11.858;2024-03-23T01:34:47;5.00;99.90
16823;DHT22;8528;49.976;11.858;2024-03-23T01:37:13;5.00;99.90
16823;DHT22;8528;49.976;11.858;2024-03-23T01:39:38;4.90;99.90
16823;DHT22;8528;49.976;11.858;2024-03-23T01:42:05;4.90;99.90
16823;DHT22;8528;49.976;11.858;2024-03-23T01:44:31;4.80;99.90
16823;DHT22;8528;49.976;11.858;2024-03-23T01:46:57;4.80;99.90
16823;DHT22;8528;49.976;11.858;2024-03-23T01:49:23;4.80;99.90
16823;DHT22;8528;49.976;11.858;2024-03-23T01:51:49;4.80;99.90
16823;DHT22;8528;49.976;11.858;2024-03-23T01:54:15;4.80;99.90
16823;DHT22;8528;49.976;11.858;2024-03-23T01:56:41;4.80;99.90
16823;DHT22;8528;49.976;11.858;2024-03-23T01:59:07;4.80;99.90
16823;DHT22;8528;49.976;11.858;2024-03-23T02:01:37;4.90;99.90
16823;DHT22;8528;49.976;11.858;2024-03-23T02:04:03;5.00;99.90
16823;DHT22;8528;49.976;11.858;2024-03-23T02:06:29;5.00;99.90
16823;DHT22;8528;49.976;11.858;2024-03-23T02:08:55;5.10;99.90
16823;DHT22;8528;49.976;11.858;2024-03-23T02:11:22;5.10;99.90
16823;DHT22;8528;49.976;11.858;2024-03-23T02:13:47;5.20;99.90
16823;DHT22;8528;49.976;11.858;2024-03-23T02:16:13;5.20;99.90
16823;DHT22;8528;49.976;11.858;2024-03-23T02:18:39;5.30;99.90
16823;DHT22;8528;49.976;11.858;2024-03-23T02:21:05;5.40;99.90
16823;DHT22;8528;49.976;11.858;2024-03-23T02:23:31;5.40;99.90
16823;DHT22;8528;49.976;11.858;2024-03-23T02:25:57;5.50;99.90
16823;DHT22;8528;49.976;11.858;2024-03-23T02:28:23;5.60;99.90
16823;DHT22;8528;49.976;11.858;2024-03-23T02:30:49;5.70;99.90
16823;DHT22;8528;49.976;11.858;2024-03-23T02:33:16;5.70;99.90
16823;DHT22;8528;49.976;11.858;2024-03-23T02:35:42;5.80;99.90
16823;DHT22;8528;49.976;11.858;2024-03-23T02:38:07;5.90;99.90
16823;DHT22;8528;49.976;11.858;2024-03-23T02:40:33;5.90;99.90
16823;DHT22;8528;49.976;11.858;2024-03-23T02:42:59;6.00;99.90
16823;DHT22;8528;49.976;11.858;2024-03-23T02:45:25;6.00;99.90
16823;DHT22;8528;49.976;11.858;2024-03-23T02:47:51;6.10;99.90
16823;DHT22;8528;49.976;11.858;2024-03-23T02:50:18;6.10;99.90
16823;DHT22;8528;49.976;11.858;2024-03-23T02:52:45;6.10;99.90
16823;DHT22;8528;49.976;11.858;2024-03-23T02:55:10;6.10;99.90
16823;DHT22;8528;49.976;11.858;2024-03-23T02:57:36;6.10;99.90
16823;DHT22;8528;49.976;11.858;2024-03-23T03:00:03;6.20;99.90
16823;DHT22;8528;49.976;11.858;2024-03-23T03:02:29;6.20;99.90
16823;DHT22;8528;49.976;11.858;2024-03-23T03:04:55;6.20;99.90
16823;DHT22;8528;49.976;11.858;2024-03-23T03:07:21;6.20;99.90
16823;DHT22;8528;49.976;11.858;2024-03-23T03:09:47;6.20;99.90
16823;DHT22;8528;49.976;11.858;2024-03-23T03:12:13;6.20;99.90
16823;DHT22;8528;49.976;11.858;2024-03-23T03:14:38;6.20;99.90
16823;DHT22;8528;49.976;11.858;2024-03-23T03:17:04;6.30;99.90
16823;DHT22;8528;49.976;11.858;2024-03-23T03:19:30;6.30;99.90
16823;DHT22;8528;49.976;11.858;2024-03-23T03:21:56;6.30;99.90
16823;DHT22;8528;49.976;11.858;2024-03-23T03:24:22;6.30;99.90
16823;DHT22;8528;49.976;11.858;2024-03-23T03:26:48;6.30;99.90
16823;DHT22;8528;49.976;11.858;2024-03-23T03:29:15;6.40;99.90
16823;DHT22;8528;49.976;11.858;2024-03-23T03:31:42;6.40;99.90
16823;DHT22;8528;49.976;11.858;2024-03-23T03:34:08;6.40;99.90
16823;DHT22;8528;49.976;11.858;2024-03-23T03:36:34;6.50;99.90
16823;DHT22;8528;49.976;11.858;2024-03-23T03:39:03;6.50;99.90
16823;DHT22;8528;49.976;11.858;2024-03-23T03:41:31;6.60;99.90
16823;DHT22;8528;49.976;11.858;2024-03-23T03:43:58;6.50;99.90
16823;DHT22;8528;49.976;11.858;2024-03-23T03:46:28;6.50;99.90
16823;DHT22;8528;49.976;11.858;2024-03-23T03:48:54;6.60;99.90
16823;DHT22;8528;49.976;11.858;2024-03-23T03:51:20;6.60;99.90
16823;DHT22;8528;49.976;11.858;2024-03-23T03:53:46;6.60;99.90
16823;DHT22;8528;49.976;11.858;2024-03-23T03:56:12;6.70;99.90
16823;DHT22;8528;49.976;11.858;2024-03-23T03:58:38;6.80;99.90
16823;DHT22;8528;49.976;11.858;2024-03-23T04:01:04;7.10;99.90
16823;DHT22;8528;49.976;11.858;2024-03-23T04:03:30;7.20;99.90
16823;DHT22;8528;49.976;11.858;2024-03-23T04:05:56;7.20;99.90
16823;DHT22;8528;49.976;11.858;2024-03-23T04:08:22;7.20;99.90
16823;DHT22;8528;49.976;11.858;2024-03-23T04:10:48;7.30;99.90
16823;DHT22;8528;49.976;11.858;2024-03-23T04:13:14;7.60;99.90
16823;DHT22;8528;49.976;11.858;2024-03-23T04:15:40;8.00;99.90
16823;DHT22;8528;49.976;11.858;2024-03-23T04:18:06;8.20;99.90
16823;DHT22;8528;49.976;11.858;2024-03-23T04:20:32;8.30;99.90
16823;DHT22;8528;49.976;11.858;2024-03-23T04:22:59;8.50;99.90
16823;DHT22;8528;49.976;11.858;2024-03-23T04:25:25;8.60;99.90
16823;DHT22;8528;49.976;11.858;2024-03-23T04:27:51;8.70;99.90
16823;DHT22;8528;49.976;11.858;2024-03-23T04:30:17;8.70;99.90
16823;DHT22;8528;49.976;11.858;2024-03-23T04:32:43;8.70;99.90
16823;DHT22;8528;49.976;11.858;2024-03-23T04:35:09;8.60;99.90
16823;DHT22;8528;49.976;11.858;2024-03-23T04:37:38;8.60;99.90
16823;DHT22;8528;49.976;11.858;2024-03-23T04:40:07;8.50;99.90
16823;DHT22;8528;49.976;11.858;2024-03-23T04:42:33;8.40;99.90
16823;DHT22;8528;49.976;11.858;2024-03-23T04:44:59;8.30;99.90
16823;DHT22;8528;49.976;11.858;2024-03-23T04:47:25;8.30;99.90
16823;DHT22;8528;49.976;11.858;2024-03-23T04:49:51;8.30;99.90
16823;DHT22;8528;49.976;11.858;2024-03-23T04:52:17;8.30;99.90
16823;DHT22;8528;49.976;11.858;2024-03-23T04:54:43;8.40;99.90
16823;DHT22;8528;49.976;11.858;2024-03-23T04:57:09;8.40;99.90
16823;DHT22;8528;49.976;11.858;2024-03-23T04:59:35;8.30;99.90
16823;DHT22;8528;49.976;11.858;2024-03-23T05:02:01;8.30;99.90
16823;DHT22;8528;49.976;11.858;2024-03-23T05:04:28;8.30;99.90
16823;DHT22;8528;49.976;11.858;2024-03-23T05:06:54;8.30;99.90
16823;DHT22;8528;49.976;11.858;2024-03-23T05:09:20;8.30;99.90
16823;DHT22;8528;49.976;11.858;2024-03-23T05:11:47;8.30;99.90
16823;DHT22;8528;49.976;11.858;2024-03-23T05:14:14;8.30;99.90
16823;DHT22;8528;49.976;11.858;2024-03-23T05:16:40;8.30;99.90
16823;DHT22;8528;49.976;11.858;2024-03-23T05:19:06;8.30;99.90
16823;DHT22;8528;49.976;11.858;2024-03-23T05:21:32;8.20;99.90
16823;DHT22;8528;49.976;11.858;2024-03-23T05:23:58;8.20;99.90
16823;DHT22;8528;49.976;11.858;2024-03-23T05:26:24;8.10;99.90
16823;DHT22;8528;49.976;11.858;2024-03-23T05:28:50;8.10;99.90
16823;DHT22;8528;49.976;11.858;2024-03-23T05:31:26;8.00;99.90
16823;DHT22;8528;49.976;11.858;2024-03-23T05:33:52;7.90;99.90
16823;DHT22;8528;49.976;11.858;2024-03-23T05:36:18;8.00;99.90
16823;DHT22;8528;49.976;11.858;2024-03-23T05:38:44;8.00;99.90
16823;DHT22;8528;49.976;11.858;2024-03-23T05:41:10;8.00;99.90
16823;DHT22;8528;49.976;11.858;2024-03-23T05:43:36;8.10;99.90
16823;DHT22;8528;49.976;11.858;2024-03-23T05:46:02;8.20;99.90
16823;DHT22;8528;49.976;11.858;2024-03-23T05:48:29;8.30;99.90
16823;DHT22;8528;49.976;11.858;2024-03-23T05:50:56;8.40;99.90
16823;DHT22;8528;49.976;11.858;2024-03-23T05:53:22;8.50;99.90
16823;DHT22;8528;49.976;11.858;2024-03-23T05:55:49;8.60;99.90
16823;DHT22;8528;49.976;11.858;2024-03-23T05:58:16;8.70;99.90
16823;DHT22;8528;49.976;11.858;2024-03-23T06:00:43;8.90;99.90
16823;DHT22;8528;49.976;11.858;2024-03-23T06:03:09;9.00;99.90
16823;DHT22;8528;49.976;11.858;2024-03-23T06:05:38;9.00;99.90
16823;DHT22;8528;49.976;11.858;2024-03-23T06:08:05;9.10;99.90
16823;DHT22;8528;49.976;11.858;2024-03-23T06:10:31;9.20;99.90
16823;DHT22;8528;49.976;11.858;2024-03-23T06:12:59;9.30;99.90
16823;DHT22;8528;49.976;11.858;2024-03-23T06:15:26;9.50;99.90
16823;DHT22;8528;49.976;11.858;2024-03-23T06:17:53;9.80;99.90
16823;DHT22;8528;49.976;11.858;2024-03-23T06:20:19;10.00;99.90
16823;DHT22;8528;49.976;11.858;2024-03-23T06:22:44;10.10;99.90
16823;DHT22;8528;49.976;11.858;2024-03-23T06:25:10;10.60;99.90
16823;DHT22;8528;49.976;11.858;2024-03-23T06:27:38;11.20;99.90
16823;DHT22;8528;49.976;11.858;2024-03-23T06:30:05;11.90;99.90
16823;DHT22;8528;49.976;11.858;2024-03-23T06:32:32;12.20;99.90
16823;DHT22;8528;49.976;11.858;2024-03-23T06:34:58;11.90;99.90
16823;DHT22;8528;49.976;11.858;2024-03-23T06:37:24;11.60;99.90
16823;DHT22;8528;49.976;11.858;2024-03-23T06:39:50;11.50;99.90
16823;DHT22;8528;49.976;11.858;2024-03-23T06:42:16;11.30;99.90
16823;DHT22;8528;49.976;11.858;2024-03-23T06:44:42;11.00;99.90
16823;DHT22;8528;49.976;11.858;2024-03-23T06:47:09;10.80;99.90
16823;DHT22;8528;49.976;11.858;2024-03-23T06:49:35;10.60;99.90
16823;DHT22;8528;49.976;11.858;2024-03-23T06:52:00;10.30;99.90
16823;DHT22;8528;49.976;11.858;2024-03-23T06:54:26;10.10;99.90
16823;DHT22;8528;49.976;11.858;2024-03-23T06:56:53;9.90;99.90
16823;DHT22;8528;49.976;11.858;2024-03-23T06:59:18;9.70;99.90
16823;DHT22;8528;49.976;11.858;2024-03-23T07:01:45;9.70;99.90
16823;DHT22;8528;49.976;11.858;2024-03-23T07:04:10;9.60;99.90
16823;DHT22;8528;49.976;11.858;2024-03-23T07:06:43;9.50;99.90
16823;DHT22;8528;49.976;11.858;2024-03-23T07:09:09;9.50;99.90
16823;DHT22;8528;49.976;11.858;2024-03-23T07:11:36;9.50;99.90
16823;DHT22;8528;49.976;11.858;2024-03-23T07:14:02;9.50;99.90
16823;DHT22;8528;49.976;11.858;2024-03-23T07:16:28;9.50;99.90
16823;DHT22;8528;49.976;11.858;2024-03-23T07:18:55;9.30;99.90
16823;DHT22;8528;49.976;11.858;2024-03-23T07:21:21;9.10;99.90
16823;DHT22;8528;49.976;11.858;2024-03-23T07:23:47;8.90;99.90
16823;DHT22;8528;49.976;11.858;2024-03-23T07:26:13;8.80;99.90
16823;DHT22;8528;49.976;11.858;2024-03-23T07:28:40;8.80;99.90
16823;DHT22;8528;49.976;11.858;2024-03-23T07:31:12;8.70;99.90
16823;DHT22;8528;49.976;11.858;2024-03-23T07:33:43;8.70;99.90
16823;DHT22;8528;49.976;11.858;2024-03-23T07:36:10;8.80;99.90
16823;DHT22;8528;49.976;11.858;2024-03-23T07:38:36;8.70;99.90
16823;DHT22;8528;49.976;11.858;2024-03-23T07:41:07;8.70;99.90
16823;DHT22;8528;49.976;11.858;2024-03-23T07:43:33;8.70;99.90
16823;DHT22;8528;49.976;11.858;2024-03-23T07:46:00;8.70;99.90
16823;DHT22;8528;49.976;11.858;2024-03-23T07:48:27;8.70;99.90
16823;DHT22;8528;49.976;11.858;2024-03-23T07:53:22;8.60;99.90
16823;DHT22;8528;49.976;11.858;2024-03-23T07:55:54;8.60;99.90
16823;DHT22;8528;49.976;11.858;2024-03-23T07:58:20;8.60;99.90
16823;DHT22;8528;49.976;11.858;2024-03-23T08:00:46;8.60;99.90
16823;DHT22;8528;49.976;11.858;2024-03-23T08:03:12;8.50;99.90
16823;DHT22;8528;49.976;11.858;2024-03-23T08:05:38;8.40;99.90
16823;DHT22;8528;49.976;11.858;2024-03-23T08:08:04;8.40;99.90
16823;DHT22;8528;49.976;11.858;2024-03-23T08:10:30;8.30;99.90
16823;DHT22;8528;49.976;11.858;2024-03-23T08:12:56;8.30;99.90
16823;DHT22;8528;49.976;11.858;2024-03-23T08:15:21;8.20;99.90
16823;DHT22;8528;49.976;11.858;2024-03-23T08:17:48;8.20;99.90
16823;DHT22;8528;49.976;11.858;2024-03-23T08:20:14;8.20;99.90
16823;DHT22;8528;49.976;11.858;2024-03-23T08:22:40;8.20;99.90
16823;DHT22;8528;49.976;11.858;2024-03-23T08:25:06;8.20;99.90
16823;DHT22;8528;49.976;11.858;2024-03-23T08:27:32;8.20;99.90
16823;DHT22;8528;49.976;11.858;2024-03-23T08:29:58;8.20;99.90
16823;DHT22;8528;49.976;11.858;2024-03-23T08:32:24;8.30;99.90
16823;DHT22;8528;49.976;11.858;2024-03-23T08:34:50;8.30;99.90
16823;DHT22;8528;49.976;11.858;2024-03-23T08:37:16;8.30;99.90
16823;DHT22;8528;49.976;11.858;2024-03-23T08:39:43;8.30;99.90
16823;DHT22;8528;49.976;11.858;2024-03-23T08:42:09;8.30;99.90
16823;DHT22;8528;49.976;11.858;2024-03-23T08:44:35;8.30;99.90
16823;DHT22;8528;49.976;11.858;2024-03-23T08:47:01;8.30;99.90
16823;DHT22;8528;49.976;11.858;2024-03-23T08:49:27;8.20;99.90
16823;DHT22;8528;49.976;11.858;2024-03-23T08:51:53;8.20;99.90
16823;DHT22;8528;49.976;11.858;2024-03-23T08:54:20;8.10;99.90
16823;DHT22;8528;49.976;11.858;2024-03-23T08:56:48;8.00;99.90
16823;DHT22;8528;49.976;11.858;2024-03-23T08:59:14;8.10;99.90
16823;DHT22;8528;49.976;11.858;2024-03-23T09:01:39;8.10;99.90
16823;DHT22;8528;49.976;11.858;2024-03-23T09:04:05;8.10;99.90
16823;DHT22;8528;49.976;11.858;2024-03-23T09:06:32;8.10;99.90
16823;DHT22;8528;49.976;11.858;2024-03-23T09:08:57;8.20;99.90
16823;DHT22;8528;49.976;11.858;2024-03-23T09:11:23;8.20;99.90
16823;DHT22;8528;49.976;11.858;2024-03-23T09:13:49;8.20;99.90
16823;DHT22;8528;49.976;11.858;2024-03-23T09:16:15;8.10;99.90
16823;DHT22;8528;49.976;11.858;2024-03-23T09:18:41;8.00;99.90
16823;DHT22;8528;49.976;11.858;2024-03-23T09:21:11;8.00;99.90
16823;DHT22;8528;49.976;11.858;2024-03-23T09:23:39;7.90;99.90
16823;DHT22;8528;49.976;11.858;2024-03-23T09:26:05;7.90;99.90
16823;DHT22;8528;49.976;11.858;2024-03-23T09:28:33;7.90;99.90
16823;DHT22;8528;49.976;11.858;2024-03-23T09:31:06;7.80;99.90
16823;DHT22;8528;49.976;11.858;2024-03-23T09:33:41;7.90;99.90
16823;DHT22;8528;49.976;11.858;2024-03-23T09:36:07;8.00;99.90
16823;DHT22;8528;49.976;11.858;2024-03-23T09:38:33;8.10;99.90
16823;DHT22;8528;49.976;11.858;2024-03-23T09:41:00;8.20;99.90
16823;DHT22;8528;49.976;11.858;2024-03-23T09:43:26;7.90;99.90
16823;DHT22;8528;49.976;11.858;2024-03-23T09:45:52;7.70;99.90
16823;DHT22;8528;49.976;11.858;2024-03-23T09:48:19;7.50;99.90
16823;DHT22;8528;49.976;11.858;2024-03-23T09:50:45;7.30;99.90
16823;DHT22;8528;49.976;11.858;2024-03-23T09:53:13;7.10;99.90
16823;DHT22;8528;49.976;11.858;2024-03-23T09:55:40;7.00;99.90
16823;DHT22;8528;49.976;11.858;2024-03-23T09:58:06;6.90;99.90
16823;DHT22;8528;49.976;11.858;2024-03-23T10:00:34;6.80;99.90
16823;DHT22;8528;49.976;11.858;2024-03-23T10:03:00;6.90;99.90
16823;DHT22;8528;49.976;11.858;2024-03-23T10:05:29;7.20;99.90
16823;DHT22;8528;49.976;11.858;2024-03-23T10:07:58;7.50;99.90
16823;DHT22;8528;49.976;11.858;2024-03-23T10:10:27;7.60;99.90
16823;DHT22;8528;49.976;11.858;2024-03-23T10:12:52;8.70;99.90
16823;DHT22;8528;49.976;11.858;2024-03-23T10:15:24;11.60;99.90
16823;DHT22;8528;49.976;11.858;2024-03-23T10:17:50;14.40;99.90
16823;DHT22;8528;49.976;11.858;2024-03-23T10:20:21;16.30;99.20
16823;DHT22;8528;49.976;11.858;2024-03-23T10:22:50;18.10;94.40
16823;DHT22;8528;49.976;11.858;2024-03-23T10:25:17;19.10;85.20
16823;DHT22;8528;49.976;11.858;2024-03-23T10:27:58;18.30;82.70
16823;DHT22;8528;49.976;11.858;2024-03-23T10:30:25;18.80;78.80
16823;DHT22;8528;49.976;11.858;2024-03-23T10:33:09;19.70;76.30
16823;DHT22;8528;49.976;11.858;2024-03-23T10:35:37;20.30;68.20
16823;DHT22;8528;49.976;11.858;2024-03-23T10:38:07;20.90;69.10
16823;DHT22;8528;49.976;11.858;2024-03-23T10:40:36;21.40;62.80
16823;DHT22;8528;49.976;11.858;2024-03-23T10:43:03;21.10;62.60
16823;DHT22;8528;49.976;11.858;2024-03-23T10:45:30;20.30;64.20
16823;DHT22;8528;49.976;11.858;2024-03-23T10:47:56;18.60;64.60
16823;DHT22;8528;49.976;11.858;2024-03-23T10:50:23;16.80;71.00
16823;DHT22;8528;49.976;11.858;2024-03-23T10:52:49;16.90;74.70
16823;DHT22;8528;49.976;11.858;2024-03-23T10:55:19;17.30;69.40
16823;DHT22;8528;49.976;11.858;2024-03-23T10:57:55;16.60;70.50
16823;DHT22;8528;49.976;11.858;2024-03-23T11:00:22;15.10;73.50
16823;DHT22;8528;49.976;11.858;2024-03-23T11:02:49;13.80;77.60
16823;DHT22;8528;49.976;11.858;2024-03-23T11:07:51;14.20;77.70
16823;DHT22;8528;49.976;11.858;2024-03-23T11:10:28;14.40;75.40
16823;DHT22;8528;49.976;11.858;2024-03-23T11:15:43;12.50;78.60
16823;DHT22;8528;49.976;11.858;2024-03-23T11:18:09;12.80;81.20
16823;DHT22;8528;49.976;11.858;2024-03-23T11:20:36;14.30;77.50
16823;DHT22;8528;49.976;11.858;2024-03-23T11:23:02;13.90;74.10
16823;DHT22;8528;49.976;11.858;2024-03-23T11:25:29;12.60;77.80
16823;DHT22;8528;49.976;11.858;2024-03-23T11:28:10;11.90;80.90
16823;DHT22;8528;49.976;11.858;2024-03-23T11:30:37;11.20;82.00
16823;DHT22;8528;49.976;11.858;2024-03-23T11:33:08;10.80;85.00
16823;DHT22;8528;49.976;11.858;2024-03-23T11:35:36;10.30;84.90
16823;DHT22;8528;49.976;11.858;2024-03-23T11:40:33;11.40;85.00
16823;DHT22;8528;49.976;11.858;2024-03-23T11:43:07;12.80;78.60
16823;DHT22;8528;49.976;11.858;2024-03-23T11:45:51;12.90;75.90
16823;DHT22;8528;49.976;11.858;2024-03-23T11:48:20;12.40;77.70
16823;DHT22;8528;49.976;11.858;2024-03-23T11:50:47;12.80;76.80
16823;DHT22;8528;49.976;11.858;2024-03-23T11:53:26;14.20;73.80
16823;DHT22;8528;49.976;11.858;2024-03-23T11:55:57;16.70;66.20
16823;DHT22;8528;49.976;11.858;2024-03-23T11:58:25;18.30;57.50
16823;DHT22;8528;49.976;11.858;2024-03-23T12:03:21;17.10;57.70
16823;DHT22;8528;49.976;11.858;2024-03-23T12:05:51;15.60;61.30
16823;DHT22;8528;49.976;11.858;2024-03-23T12:08:23;14.00;66.50
16823;DHT22;8528;49.976;11.858;2024-03-23T12:13:39;16.30;64.70
16823;DHT22;8528;49.976;11.858;2024-03-23T12:18:37;19.50;53.20
16823;DHT22;8528;49.976;11.858;2024-03-23T12:21:04;18.90;52.50
16823;DHT22;8528;49.976;11.858;2024-03-23T12:23:30;17.40;54.00
16823;DHT22;8528;49.976;11.858;2024-03-23T12:25:56;17.50;54.70
16823;DHT22;8528;49.976;11.858;2024-03-23T12:28:21;17.90;54.70
16823;DHT22;8528;49.976;11.858;2024-03-23T12:30:48;18.00;53.70
16823;DHT22;8528;49.976;11.858;2024-03-23T12:33:14;17.10;54.10
16823;DHT22;8528;49.976;11.858;2024-03-23T12:35:40;15.50;55.70
16823;DHT22;8528;49.976;11.858;2024-03-23T12:38:05;14.00;58.80
16823;DHT22;8528;49.976;11.858;2024-03-23T12:40:31;12.80;63.10
16823;DHT22;8528;49.976;11.858;2024-03-23T12:42:57;12.20;66.00
16823;DHT22;8528;49.976;11.858;2024-03-23T12:45:23;12.30;66.20
16823;DHT22;8528;49.976;11.858;2024-03-23T12:47:49;13.30;66.00
16823;DHT22;8528;49.976;11.858;2024-03-23T12:50:15;13.30;64.60
16823;DHT22;8528;49.976;11.858;2024-03-23T12:52:41;13.20;63.10
16823;DHT22;8528;49.976;11.858;2024-03-23T12:55:07;12.40;66.20
16823;DHT22;8528;49.976;11.858;2024-03-23T12:57:33;12.50;68.20
16823;DHT22;8528;49.976;11.858;2024-03-23T12:59:59;12.50;65.70
16823;DHT22;8528;49.976;11.858;2024-03-23T13:02:26;12.70;67.10
16823;DHT22;8528;49.976;11.858;2024-03-23T13:04:53;14.30;64.00
16823;DHT22;8528;49.976;11.858;2024-03-23T13:07:20;16.30;60.50
16823;DHT22;8528;49.976;11.858;2024-03-23T13:09:49;16.90;56.00
16823;DHT22;8528;49.976;11.858;2024-03-23T13:12:15;16.40;55.60
16823;DHT22;8528;49.976;11.858;2024-03-23T13:14:41;15.50;57.30
16823;DHT22;8528;49.976;11.858;2024-03-23T13:17:08;15.60;58.60
16823;DHT22;8528;49.976;11.858;2024-03-23T13:19:34;16.90;55.90
16823;DHT22;8528;49.976;11.858;2024-03-23T13:22:01;17.60;54.00
16823;DHT22;8528;49.976;11.858;2024-03-23T13:24:27;18.80;53.70
16823;DHT22;8528;49.976;11.858;2024-03-23T13:26:55;19.40;51.10
16823;DHT22;8528;49.976;11.858;2024-03-23T13:29:21;19.90;50.90
16823;DHT22;8528;49.976;11.858;2024-03-23T13:31:48;20.20;49.00
16823;DHT22;8528;49.976;11.858;2024-03-23T13:34:15;18.60;50.90
16823;DHT22;8528;49.976;11.858;2024-03-23T13:36:42;17.60;54.00
16823;DHT22;8528;49.976;11.858;2024-03-23T13:39:09;17.20;53.70
16823;DHT22;8528;49.976;11.858;2024-03-23T13:41:42;16.00;55.20
16823;DHT22;8528;49.976;11.858;2024-03-23T13:44:10;14.90;56.40
16823;DHT22;8528;49.976;11.858;2024-03-23T13:46:37;13.40;57.10
16823;DHT22;8528;49.976;11.858;2024-03-23T13:49:03;12.30;59.40
16823;DHT22;8528;49.976;11.858;2024-03-23T13:51:29;11.60;61.00
16823;DHT22;8528;49.976;11.858;2024-03-23T13:53:56;11.10;63.50
16823;DHT22;8528;49.976;11.858;2024-03-23T13:56:22;10.90;64.40
16823;DHT22;8528;49.976;11.858;2024-03-23T13:58:49;10.60;65.80
16823;DHT22;8528;49.976;11.858;2024-03-23T14:01:16;10.30;66.50
16823;DHT22;8528;49.976;11.858;2024-03-23T14:03:43;10.20;67.20
16823;DHT22;8528;49.976;11.858;2024-03-23T14:06:10;10.20;68.30
16823;DHT22;8528;49.976;11.858;2024-03-23T14:08:36;10.30;68.00
16823;DHT22;8528;49.976;11.858;2024-03-23T14:11:06;10.20;67.70
16823;DHT22;8528;49.976;11.858;2024-03-23T14:13:31;10.20;69.30
16823;DHT22;8528;49.976;11.858;2024-03-23T14:15:58;10.40;67.20
16823;DHT22;8528;49.976;11.858;2024-03-23T14:18:24;10.60;66.40
16823;DHT22;8528;49.976;11.858;2024-03-23T14:20:52;10.50;67.20
16823;DHT22;8528;49.976;11.858;2024-03-23T14:23:25;10.50;66.10
16823;DHT22;8528;49.976;11.858;2024-03-23T14:25:53;10.40;66.20
16823;DHT22;8528;49.976;11.858;2024-03-23T14:28:19;10.20;66.70
16823;DHT22;8528;49.976;11.858;2024-03-23T14:30:45;10.10;67.80
16823;DHT22;8528;49.976;11.858;2024-03-23T14:33:11;9.80;69.20
16823;DHT22;8528;49.976;11.858;2024-03-23T14:35:38;9.70;69.90
16823;DHT22;8528;49.976;11.858;2024-03-23T14:38:05;9.60;70.40
16823;DHT22;8528;49.976;11.858;2024-03-23T14:40:31;9.40;71.50
16823;DHT22;8528;49.976;11.858;2024-03-23T14:42:57;9.40;72.20
16823;DHT22;8528;49.976;11.858;2024-03-23T14:45:23;9.10;72.10
16823;DHT22;8528;49.976;11.858;2024-03-23T14:47:53;8.90;74.10
16823;DHT22;8528;49.976;11.858;2024-03-23T14:50:19;8.80;76.90
16823;DHT22;8528;49.976;11.858;2024-03-23T14:52:45;8.90;82.00
16823;DHT22;8528;49.976;11.858;2024-03-23T14:55:12;8.90;83.10
16823;DHT22;8528;49.976;11.858;2024-03-23T14:57:38;8.90;84.30
16823;DHT22;8528;49.976;11.858;2024-03-23T15:00:09;8.90;83.50
16823;DHT22;8528;49.976;11.858;2024-03-23T15:02:39;8.80;83.30
16823;DHT22;8528;49.976;11.858;2024-03-23T15:05:05;8.70;84.50
16823;DHT22;8528;49.976;11.858;2024-03-23T15:07:40;8.70;85.70
16823;DHT22;8528;49.976;11.858;2024-03-23T15:10:06;8.80;85.70
16823;DHT22;8528;49.976;11.858;2024-03-23T15:12:33;8.70;86.40
16823;DHT22;8528;49.976;11.858;2024-03-23T15:14:59;8.60;87.10
16823;DHT22;8528;49.976;11.858;2024-03-23T15:17:26;8.60;89.80
16823;DHT22;8528;49.976;11.858;2024-03-23T15:19:52;8.60;90.30
16823;DHT22;8528;49.976;11.858;2024-03-23T15:22:19;8.60;90.00
16823;DHT22;8528;49.976;11.858;2024-03-23T15:24:47;8.60;87.60
16823;DHT22;8528;49.976;11.858;2024-03-23T15:27:13;8.60;90.20
16823;DHT22;8528;49.976;11.858;2024-03-23T15:29:39;8.40;89.30
16823;DHT22;8528;49.976;11.858;2024-03-23T15:32:05;8.20;90.00
16823;DHT22;8528;49.976;11.858;2024-03-23T15:34:31;8.00;90.60
16823;DHT22;8528;49.976;11.858;2024-03-23T15:36:57;7.90;90.70
16823;DHT22;8528;49.976;11.858;2024-03-23T15:39:23;7.70;90.80
16823;DHT22;8528;49.976;11.858;2024-03-23T15:41:48;7.60;91.30
16823;DHT22;8528;49.976;11.858;2024-03-23T15:44:15;7.60;92.30
16823;DHT22;8528;49.976;11.858;2024-03-23T15:46:41;7.50;91.00
16823;DHT22;8528;49.976;11.858;2024-03-23T15:49:07;7.40;91.20
16823;DHT22;8528;49.976;11.858;2024-03-23T15:51:33;7.50;91.30
16823;DHT22;8528;49.976;11.858;2024-03-23T15:54:00;7.50;91.70
16823;DHT22;8528;49.976;11.858;2024-03-23T15:56:29;7.50;91.10
16823;DHT22;8528;49.976;11.858;2024-03-23T15:58:55;7.40;91.30
16823;DHT22;8528;49.976;11.858;2024-03-23T16:01:21;7.30;91.50
16823;DHT22;8528;49.976;11.858;2024-03-23T16:03:47;7.30;91.60
16823;DHT22;8528;49.976;11.858;2024-03-23T16:06:13;7.20;91.50
16823;DHT22;8528;49.976;11.858;2024-03-23T16:08:39;7.10;91.40
16823;DHT22;8528;49.976;11.858;2024-03-23T16:11:07;7.00;91.80
16823;DHT22;8528;49.976;11.858;2024-03-23T16:13:33;7.00;92.30
16823;DHT22;8528;49.976;11.858;2024-03-23T16:16:06;7.00;92.80
16823;DHT22;8528;49.976;11.858;2024-03-23T16:18:36;7.00;92.40
16823;DHT22;8528;49.976;11.858;2024-03-23T16:21:04;6.90;92.70
16823;DHT22;8528;49.976;11.858;2024-03-23T16:23:32;6.80;93.10
16823;DHT22;8528;49.976;11.858;2024-03-23T16:25:59;6.70;93.10
16823;DHT22;8528;49.976;11.858;2024-03-23T16:28:34;6.70;93.30
16823;DHT22;8528;49.976;11.858;2024-03-23T16:31:03;6.60;93.20
16823;DHT22;8528;49.976;11.858;2024-03-23T16:33:30;6.50;93.50
16823;DHT22;8528;49.976;11.858;2024-03-23T16:36:00;6.50;93.40
16823;DHT22;8528;49.976;11.858;2024-03-23T16:38:27;6.50;91.90
16823;DHT22;8528;49.976;11.858;2024-03-23T16:40:57;6.60;92.20
16823;DHT22;8528;49.976;11.858;2024-03-23T16:43:24;6.60;92.40
16823;DHT22;8528;49.976;11.858;2024-03-23T16:48:27;6.50;92.30
16823;DHT22;8528;49.976;11.858;2024-03-23T16:50:56;6.40;92.40
16823;DHT22;8528;49.976;11.858;2024-03-23T16:53:22;6.30;93.00
16823;DHT22;8528;49.976;11.858;2024-03-23T16:55:58;6.30;92.60